KTEB/TEB METAR and TAF weather

Enter ICAO airport designator
Station Type Date Time Source
KTEB METAR 2020/01/27 16:51 UTC NOAA

KTEB 271651Z 23010KT 10SM OVC042 07/03 A2968 RMK AO2 SLP050 T00670028


Station Type Date Time Source
KTEB Decoded METAR 2020/01/27 16:51 UTC NOAA

TETERBORO AIRPORT, NJ, United States (KTEB) 40-52N 74-03W 7M
Jan 27, 2020 - 11:51 AM EST / 2020.01.27 1651 UTC
Wind: from the SW (230 degrees) at 12 MPH (10 KT):0
Visibility: 10 mile(s):0
Sky conditions: overcast
Temperature: 44.1 F (6.7 C)
Dew Point: 37.0 F (2.8 C)
Relative Humidity: 76%
Pressure (altimeter): 29.68 in. Hg (1005 hPa)
ob: KTEB 271651Z 23010KT 10SM OVC042 07/03 A2968 RMK AO2 SLP050 T00670028
cycle: 17

Station Type Date Time Source
KTEB TAF 2020/01/27 16:40 UTC NOAA

TAF
AMD KTEB 271537Z 2716/2818 27011G18KT P6SM BKN040
FM272200 29009KT P6SM SCT050
FM280300 31006KT P6SM FEW025
FM281500 31010G17KT P6SM FEW035

Example: see airport list